Andrus Island, California
Current Conditions -  °F | °C
As of 5:58 AM on Thursday 29 Jan 2015 (Local Time) from KSUU Reporting Station
Clear Clear  
Wind Chill:   Ceiling: Unl
Heat Index:   Visibility: 10mi
Dew Point:   Wind: 7mph
Humidity: 96%   Direction: 30°NNE
Pressure: 30.13"   Gusts: NA
Location:  38.1457°N, 121.624°W
Report Text: KSUU 291358Z AUTO 03006KT 10SM CLR 05/05 A3013 RMK AO2 SLP210 T00540048 $
Loading
Personal Weather Stations






























Interactive Weather Map New forecast layout! Learn more

10-Day Weather Forecast

Advertisements
Track Severe Weather on mobile